Time;durP1;ratioP1;P1;durP2;ratioP2;P2;SDS_P1;SDS_P2;PMS_P1;PMS_P2;Temp;Humidity;BMP_temperature;BMP_pressure;BME280_temperature;BME280_humidity;BME280_pressure;Samples;Min_cycle;Max_cycle;Signal;HPM_P1;HPM_P2
2021/06/09 00:01:37;;;;;;;4.85;3.60;;;;;;;16.06;77.11;97678.04;1714470;83;21494;-74
2021/06/09 00:04:03;;;;;;;4.17;3.77;;;;;;;16.07;76.71;97668.60;1714612;84;21005;-74
2021/06/09 00:06:30;;;;;;;4.45;3.40;;;;;;;16.09;76.64;97664.52;1714415;84;21446;-74
2021/06/09 00:08:57;;;;;;;5.03;3.60;;;;;;;16.09;76.65;97673.41;1714540;84;20989;-74
2021/06/09 00:11:23;;;;;;;5.47;3.77;;;;;;;16.15;75.94;97671.33;1714769;84;21016;-74
2021/06/09 00:13:50;;;;;;;4.67;3.85;;;;;;;16.16;76.49;97677.05;1714656;84;21068;-74
2021/06/09 00:16:20;;;;;;;5.37;3.67;;;;;;;16.15;75.90;97671.33;1666720;85;21051;-74
2021/06/09 00:18:47;;;;;;;4.85;3.65;;;;;;;16.17;75.95;97673.42;1666650;86;20979;-74
2021/06/09 00:21:16;;;;;;;3.87;3.47;;;;;;;16.18;76.30;97673.34;1666934;85;21038;-74
2021/06/09 00:23:44;;;;;;;4.08;3.67;;;;;;;16.19;75.44;97668.86;1666741;85;21006;-74
2021/06/09 00:26:13;;;;;;;4.25;3.75;;;;;;;16.22;74.92;97668.20;1666545;86;21061;-74
2021/06/09 00:28:40;;;;;;;4.30;3.90;;;;;;;16.21;74.83;97666.49;1666835;85;21014;-74
2021/06/09 00:31:08;;;;;;;4.85;3.77;;;;;;;16.22;74.47;97664.66;1666705;85;21025;-74
2021/06/09 00:33:36;;;;;;;4.00;3.60;;;;;;;16.18;75.19;97665.78;1666673;85;21041;-74
2021/06/09 00:36:04;;;;;;;3.87;3.40;;;;;;;16.16;75.71;97655.66;1666768;85;21014;-74
2021/06/09 00:38:31;;;;;;;4.60;4.03;;;;;;;16.12;74.33;97658.12;1666758;85;21452;-74
2021/06/09 00:40:59;;;;;;;5.83;3.80;;;;;;;16.08;74.47;97656.95;1666552;85;21125;-74
2021/06/09 00:43:32;;;;;;;4.80;4.12;;;;;;;16.06;74.00;97657.99;1666732;85;21042;-74
2021/06/09 00:46:05;;;;;;;7.33;5.15;;;;;;;15.98;75.41;97656.25;1666765;85;21482;-74
2021/06/09 00:48:34;;;;;;;5.53;4.80;;;;;;;15.94;74.46;97660.42;1666808;85;21475;-74
2021/06/09 00:51:13;;;;;;;7.83;4.70;;;;;;;15.83;77.20;97655.66;1666667;85;21010;-75
2021/06/09 00:53:47;;;;;;;5.80;4.55;;;;;;;15.71;76.48;97657.20;1666623;86;21007;-74
2021/06/09 00:56:13;;;;;;;5.65;4.75;;;;;;;15.64;76.22;97650.95;1666483;85;21070;-74
2021/06/09 00:58:42;;;;;;;5.37;4.42;;;;;;;15.53;78.29;97651.58;1666622;85;21074;-74
2021/06/09 01:01:11;;;;;;;5.78;4.47;;;;;;;15.42;77.97;97638.35;1666489;86;21038;-74
2021/06/09 01:03:40;;;;;;;5.85;4.70;;;;;;;15.39;77.85;97638.97;1666664;86;21025;-74
2021/06/09 01:06:07;;;;;;;5.53;4.80;;;;;;;15.35;78.10;97641.41;1666732;85;21069;-74
2021/06/09 01:08:37;;;;;;;5.55;4.70;;;;;;;15.39;76.86;97635.84;1666653;85;21025;-74
2021/06/09 01:11:07;;;;;;;7.12;4.85;;;;;;;15.42;77.93;97637.02;1666814;85;21408;-74
2021/06/09 01:13:34;;;;;;;6.28;4.80;;;;;;;15.42;79.73;97630.34;1666577;85;21025;-74
2021/06/09 01:16:00;;;;;;;6.58;4.55;;;;;;;15.42;76.87;97623.66;1666810;85;21487;-74
2021/06/09 01:18:28;;;;;;;5.22;4.72;;;;;;;15.42;77.07;97629.47;1666692;85;21030;-74
2021/06/09 01:20:57;;;;;;;8.30;4.80;;;;;;;15.39;77.49;97620.28;1666738;86;21083;-74
2021/06/09 01:23:26;;;;;;;7.22;4.75;;;;;;;15.38;79.56;97619.89;1666659;86;21423;-74
2021/06/09 01:25:54;;;;;;;6.65;4.80;;;;;;;15.36;78.28;97615.97;1666576;86;21507;-74
2021/06/09 01:28:21;;;;;;;6.12;4.65;;;;;;;15.31;79.22;97619.37;1666763;86;21490;-74
2021/06/09 01:30:49;;;;;;;4.62;3.85;;;;;;;15.28;78.10;97624.89;1666497;85;21538;-74
2021/06/09 01:33:18;;;;;;;6.30;4.08;;;;;;;15.32;77.57;97619.75;1666693;86;21495;-74
2021/06/09 01:35:46;;;;;;;5.87;3.98;;;;;;;15.34;78.77;97614.33;1666514;86;21078;-74
2021/06/09 01:38:13;;;;;;;5.92;4.10;;;;;;;15.35;78.36;97619.59;1654865;86;21046;-74
2021/06/09 01:40:40;;;;;;;6.08;4.50;;;;;;;15.42;78.48;97615.66;1666586;86;21082;-74
2021/06/09 01:43:07;;;;;;;4.70;3.67;;;;;;;15.45;77.82;97619.95;1666481;86;21062;-74
2021/06/09 01:45:38;;;;;;;4.55;3.95;;;;;;;15.50;77.79;97620.56;1666679;85;21058;-74
2021/06/09 01:48:07;;;;;;;4.95;3.80;;;;;;;15.49;78.62;97619.31;1666685;85;21058;-74
2021/06/09 01:50:36;;;;;;;5.70;3.55;;;;;;;15.51;77.94;97616.06;1666637;85;21062;-74
2021/06/09 01:53:05;;;;;;;4.53;4.12;;;;;;;15.53;77.86;97620.86;1666676;85;21022;-74
2021/06/09 01:55:34;;;;;;;6.20;4.00;;;;;;;15.49;78.38;97615.30;1666765;85;21038;-74
2021/06/09 01:58:02;;;;;;;6.35;4.42;;;;;;;15.50;77.92;97618.35;1666550;86;21491;-74
2021/06/09 02:00:33;;;;;;;4.55;3.98;;;;;;;15.51;77.78;97613.39;1666636;85;21115;-74
2021/06/09 02:03:00;;;;;;;5.58;4.08;;;;;;;15.49;78.13;97618.81;1666658;85;21069;-74
2021/06/09 02:05:31;;;;;;;6.40;3.75;;;;;;;15.43;77.78;97608.02;1666581;85;21005;-73
2021/06/09 02:08:02;;;;;;;5.65;3.90;;;;;;;15.41;78.36;97611.23;1666777;85;21018;-73
2021/06/09 02:10:29;;;;;;;5.55;4.35;;;;;;;15.37;78.56;97618.17;1666631;86;21034;-74
2021/06/09 02:13:00;;;;;;;4.67;4.28;;;;;;;15.31;78.66;97617.57;1666475;85;21045;-74
2021/06/09 02:15:28;;;;;;;5.03;4.12;;;;;;;15.28;78.16;97616.89;1666665;86;21098;-74
2021/06/09 02:18:14;;;;;;;5.17;4.28;;;;;;;15.24;77.34;97615.33;1666587;85;21443;-74
2021/06/09 02:20:41;;;;;;;5.58;4.47;;;;;;;15.17;77.13;97622.80;1665702;85;21069;-74
2021/06/09 02:23:13;;;;;;;5.97;4.50;;;;;;;15.03;77.35;97614.22;1666661;85;21077;-74
2021/06/09 02:25:44;;;;;;;8.33;4.80;;;;;;;14.96;77.75;97615.48;1666510;86;21070;-74
2021/06/09 02:28:12;;;;;;;7.20;5.60;;;;;;;14.92;77.48;97612.12;1666668;86;21042;-74
2021/06/09 02:30:42;;;;;;;7.10;4.87;;;;;;;14.87;77.83;97617.69;1666740;86;21030;-73
2021/06/09 02:33:13;;;;;;;8.23;4.40;;;;;;;14.81;78.18;97617.14;1666499;86;21542;-74
2021/06/09 02:35:43;;;;;;;5.37;4.85;;;;;;;14.75;78.51;97620.53;1666587;85;20995;-74
2021/06/09 02:38:11;;;;;;;6.87;4.72;;;;;;;14.68;78.72;97621.78;1665674;86;21006;-74
2021/06/09 02:40:40;;;;;;;10.60;5.08;;;;;;;14.62;78.64;97630.11;1666402;86;21014;-74
2021/06/09 02:43:09;;;;;;;6.83;4.67;;;;;;;14.55;78.64;97626.89;1666611;85;21035;-74
2021/06/09 02:45:36;;;;;;;7.05;4.75;;;;;;;14.52;78.68;97629.70;1666656;85;20994;-74
2021/06/09 02:48:11;;;;;;;5.80;4.40;;;;;;;14.45;81.43;97625.16;1642907;86;21050;-74
2021/06/09 02:50:38;;;;;;;6.40;4.80;;;;;;;14.42;79.14;97624.45;1639735;87;21053;-74
2021/06/09 02:53:41;;;;;;;7.08;4.65;;;;;;;14.36;79.20;97625.17;1639535;87;21006;-74
2021/06/09 02:56:31;;;;;;;6.35;4.87;;;;;;;14.33;79.46;97630.64;1641272;86;21057;-74
2021/06/09 02:59:24;;;;;;;6.33;4.92;;;;;;;14.27;79.23;97630.96;1666633;86;21062;-74
2021/06/09 03:01:58;;;;;;;7.75;5.00;;;;;;;14.21;82.00;97637.94;1666508;86;21048;-74
2021/06/09 03:04:42;;;;;;;7.17;4.47;;;;;;;14.13;81.42;97632.51;1666774;86;20979;-73
2021/06/09 03:07:34;;;;;;;5.58;4.65;;;;;;;14.10;80.64;97630.48;1654070;86;21058;-74
2021/06/09 03:10:15;;;;;;;8.25;4.92;;;;;;;14.07;80.51;97630.16;1639882;86;21033;-75
2021/06/09 03:12:48;;;;;;;5.95;4.53;;;;;;;14.07;83.13;97629.31;1639705;87;21022;-74
2021/06/09 03:15:23;;;;;;;5.40;4.78;;;;;;;14.06;82.63;97629.77;1639211;87;21491;-74
2021/06/09 03:17:58;;;;;;;6.22;4.75;;;;;;;14.05;83.15;97626.72;1653712;86;21053;-75
2021/06/09 03:20:39;;;;;;;8.25;6.17;;;;;;;14.06;82.29;97629.77;1666427;85;21511;-75
2021/06/09 03:23:14;;;;;;;9.03;5.42;;;;;;;14.06;81.74;97629.77;1666156;85;21110;-74
2021/06/09 03:26:20;;;;;;;7.55;5.10;;;;;;;14.09;82.64;97628.76;1666361;85;21495;-74
2021/06/09 03:29:27;;;;;;;6.05;4.62;;;;;;;14.15;83.38;97627.11;1613158;88;21459;-74
2021/06/09 03:32:02;;;;;;;6.28;4.40;;;;;;;14.19;82.44;97625.14;1639524;87;21423;-74
2021/06/09 03:34:34;;;;;;;5.35;4.47;;;;;;;14.24;82.99;97629.31;1635615;88;21025;-74
2021/06/09 03:37:03;;;;;;;5.15;4.17;;;;;;;14.24;85.26;97621.32;1656790;85;21443;-74
2021/06/09 03:39:32;;;;;;;5.62;4.28;;;;;;;14.32;83.16;97622.75;1690586;85;21010;-74
2021/06/09 03:42:01;;;;;;;4.35;3.90;;;;;;;14.38;83.75;97621.94;1694152;85;21451;-74
2021/06/09 03:44:36;;;;;;;8.00;4.30;;;;;;;14.45;82.83;97612.31;1690694;85;21427;-74
2021/06/09 03:47:04;;;;;;;4.53;4.12;;;;;;;14.52;83.17;97617.70;1682967;85;20955;-74
2021/06/09 03:49:32;;;;;;;4.33;3.90;;;;;;;14.60;82.99;97615.52;1671329;85;20978;-74
2021/06/09 03:52:00;;;;;;;6.20;4.08;;;;;;;14.65;82.34;97612.13;1685853;85;20991;-74
2021/06/09 03:54:30;;;;;;;5.42;4.12;;;;;;;14.71;82.20;97615.42;1686182;85;21427;-74
2021/06/09 03:57:00;;;;;;;5.42;4.05;;;;;;;14.78;82.03;97616.84;1681127;85;20986;-75
2021/06/09 03:59:29;;;;;;;5.00;4.25;;;;;;;14.83;81.91;97613.48;1658598;86;20986;-75
2021/06/09 04:01:59;;;;;;;5.20;4.55;;;;;;;14.86;81.52;97608.45;1658638;86;21021;-75
2021/06/09 04:04:29;;;;;;;18.50;12.73;;;;;;;14.90;81.85;97611.32;1658551;86;21500;-75
2021/06/09 04:06:58;;;;;;;16.87;13.32;;;;;;;14.96;80.91;97612.81;1663376;85;21034;-75
2021/06/09 04:09:26;;;;;;;7.97;4.80;;;;;;;14.99;80.75;97611.32;1686363;85;21034;-75
2021/06/09 04:12:00;;;;;;;5.00;4.50;;;;;;;15.03;80.34;97609.73;1686131;85;21006;-75
2021/06/09 04:14:37;;;;;;;7.03;4.92;;;;;;;15.07;80.06;97608.23;1686234;85;21464;-75
2021/06/09 04:17:06;;;;;;;4.67;4.00;;;;;;;15.10;80.02;97610.27;1684747;85;20964;-75
2021/06/09 04:19:35;;;;;;;6.33;4.17;;;;;;;15.11;80.04;97613.31;1686232;85;20975;-75
2021/06/09 04:22:05;;;;;;;8.05;4.60;;;;;;;15.15;79.87;97615.33;1686044;85;20974;-75
2021/06/09 04:24:41;;;;;;;7.22;4.70;;;;;;;15.17;79.61;97612.12;1686103;85;21014;-75
2021/06/09 04:27:15;;;;;;;7.78;4.47;;;;;;;15.21;79.72;97612.81;1679847;85;21486;-75
2021/06/09 04:29:43;;;;;;;5.50;4.42;;;;;;;15.24;80.55;97613.99;1654791;86;21408;-76
2021/06/09 04:32:10;;;;;;;6.75;4.70;;;;;;;15.28;79.38;97612.39;1658451;86;21001;-75
2021/06/09 04:34:53;;;;;;;6.25;4.55;;;;;;;15.33;80.30;97613.48;1655916;87;20986;-75
2021/06/09 04:37:24;;;;;;;8.05;4.87;;;;;;;15.36;79.39;97609.30;1666651;85;21419;-73
2021/06/09 04:39:53;;;;;;;5.97;5.37;;;;;;;15.40;79.31;97612.68;1686166;85;21009;-75
2021/06/09 04:42:22;;;;;;;10.38;5.03;;;;;;;15.44;79.32;97616.88;1686187;85;21478;-74
2021/06/09 04:44:50;;;;;;;9.08;5.20;;;;;;;15.47;79.36;97619.39;1686163;85;21014;-74
2021/06/09 04:47:17;;;;;;;7.08;4.75;;;;;;;15.49;79.15;97613.97;1682220;85;21006;-74
2021/06/09 04:49:45;;;;;;;5.47;4.83;;;;;;;15.54;79.07;97616.75;1655960;85;20970;-74
2021/06/09 04:52:14;;;;;;;6.80;5.12;;;;;;;15.57;79.15;97609.03;1658429;86;21010;-74
2021/06/09 04:54:41;;;;;;;4.97;4.47;;;;;;;15.62;78.90;97613.67;1655727;87;20973;-74
2021/06/09 04:57:09;;;;;;;7.53;5.95;;;;;;;15.68;78.91;97613.31;1660578;85;21087;-74
2021/06/09 04:59:36;;;;;;;5.40;4.47;;;;;;;15.74;78.51;97614.76;1686138;85;21412;-74
2021/06/09 05:02:04;;;;;;;6.55;4.50;;;;;;;15.81;78.99;97604.59;1686185;85;21102;-73
2021/06/09 05:04:31;;;;;;;8.05;4.30;;;;;;;15.87;78.24;97613.61;1686287;85;21054;-74
2021/06/09 05:06:57;;;;;;;5.72;4.40;;;;;;;15.94;78.06;97613.66;1686037;85;21082;-73
2021/06/09 05:09:25;;;;;;;5.80;4.28;;;;;;;16.00;77.92;97613.79;1685107;85;20955;-74
2021/06/09 05:12:12;;;;;;;5.25;4.20;;;;;;;16.06;77.67;97615.22;1686136;85;20994;-73
2021/06/09 05:14:53;;;;;;;5.05;4.55;;;;;;;16.15;77.44;97612.52;1667007;85;21017;-74
2021/06/09 05:17:25;;;;;;;5.12;4.37;;;;;;;16.26;76.81;97609.19;1663685;85;21037;-75
2021/06/09 05:19:53;;;;;;;5.78;4.58;;;;;;;16.34;76.61;97610.94;1686628;85;21062;-74
2021/06/09 05:22:46;;;;;;;6.33;4.28;;;;;;;16.41;76.43;97612.77;1696487;85;21070;-75
2021/06/09 05:25:14;;;;;;;7.90;4.92;;;;;;;16.48;76.20;97616.33;1696175;83;21002;-75
2021/06/09 05:27:43;;;;;;;7.60;4.95;;;;;;;16.55;75.90;97619.96;1687649;84;21031;-74
2021/06/09 05:30:15;;;;;;;5.70;4.17;;;;;;;16.60;75.60;97615.19;1668607;86;21047;-73
2021/06/09 05:32:43;;;;;;;7.92;4.20;;;;;;;16.66;75.38;97613.97;1668564;86;21071;-73
2021/06/09 05:35:11;;;;;;;5.45;4.37;;;;;;;16.70;75.19;97615.02;1668532;85;21038;-73
2021/06/09 05:37:39;;;;;;;5.25;3.92;;;;;;;16.76;74.90;97620.02;1661511;85;21389;-73
2021/06/09 05:40:09;;;;;;;5.22;3.55;;;;;;;16.83;74.15;97624.52;1696605;83;21029;-73
2021/06/09 05:42:37;;;;;;;6.20;3.85;;;;;;;16.92;74.03;97618.20;1696583;85;21615;-73
2021/06/09 05:45:05;;;;;;;7.35;5.35;;;;;;;16.99;73.89;97615.54;1696279;84;21003;-73
2021/06/09 05:47:41;;;;;;;5.12;4.08;;;;;;;17.06;73.63;97610.70;1673500;85;21407;-74
2021/06/09 05:50:13;;;;;;;5.40;4.47;;;;;;;17.15;73.06;97621.68;1695522;84;21097;-73
2021/06/09 05:52:39;;;;;;;5.17;3.98;;;;;;;17.23;72.58;97617.17;1696536;83;21046;-73
2021/06/09 05:55:11;;;;;;;8.68;4.70;;;;;;;17.31;72.28;97622.05;1696311;85;21530;-74
2021/06/09 05:57:38;;;;;;;4.95;3.98;;;;;;;17.38;72.25;97621.19;1691154;84;21050;-74
2021/06/09 06:00:06;;;;;;;7.50;4.37;;;;;;;17.46;72.00;97627.39;1668756;85;21039;-74
2021/06/09 06:02:35;;;;;;;5.40;3.85;;;;;;;17.53;71.97;97620.70;1668444;85;21023;-74
2021/06/09 06:05:03;;;;;;;11.15;4.00;;;;;;;17.61;71.71;97618.86;1671939;85;21031;-73
2021/06/09 06:07:32;;;;;;;4.37;3.98;;;;;;;17.68;71.12;97622.37;1675943;85;20940;-73
2021/06/09 06:10:00;;;;;;;21.65;16.77;;;;;;;17.76;70.76;97626.37;1681158;85;20980;-73
2021/06/09 06:12:28;;;;;;;5.80;4.28;;;;;;;17.85;70.67;97626.27;1682679;85;21014;-73
2021/06/09 06:14:56;;;;;;;9.35;3.60;;;;;;;17.92;67.65;97632.94;1671079;85;21057;-73
2021/06/09 06:17:22;;;;;;;7.25;4.25;;;;;;;18.02;69.13;97634.55;1665682;85;21046;-74
2021/06/09 06:19:50;;;;;;;7.35;3.50;;;;;;;18.09;68.89;97632.36;1742895;82;21409;-74
2021/06/09 06:22:19;;;;;;;4.28;3.70;;;;;;;18.16;68.72;97633.65;1743864;82;21418;-73
2021/06/09 06:24:51;;;;;;;9.90;4.10;;;;;;;18.24;68.74;97635.35;1727354;82;21448;-74
2021/06/09 06:27:19;;;;;;;5.67;3.87;;;;;;;18.36;68.33;97636.81;1714507;84;21450;-74
2021/06/09 06:29:46;;;;;;;4.12;3.70;;;;;;;18.47;66.74;97632.92;1742693;82;21048;-73
2021/06/09 06:32:15;;;;;;;6.30;3.65;;;;;;;18.59;67.26;97625.86;1743762;82;20989;-72
2021/06/09 06:34:51;;;;;;;6.83;4.53;;;;;;;18.65;65.90;97626.80;1744026;82;21013;-73
2021/06/09 06:37:21;;;;;;;9.53;5.00;;;;;;;18.74;65.36;97626.64;1743905;82;21032;-74
2021/06/09 06:39:48;;;;;;;7.95;5.58;;;;;;;18.83;65.39;97624.66;1715815;82;21501;-74
2021/06/09 06:42:18;;;;;;;10.03;6.03;;;;;;;18.93;65.59;97627.55;1714261;84;22133;-73
2021/06/09 06:44:45;;;;;;;12.18;5.87;;;;;;;19.05;65.91;97620.99;1714433;84;20984;-73
2021/06/09 06:47:14;;;;;;;7.33;5.33;;;;;;;19.15;65.81;97625.22;1714549;84;21024;-73
2021/06/09 06:49:44;;;;;;;13.88;5.67;;;;;;;19.24;65.29;97621.41;1731858;82;21150;-74
2021/06/09 06:52:11;;;;;;;11.05;5.70;;;;;;;19.37;64.70;97628.10;1715395;83;21004;-74
2021/06/09 06:54:38;;;;;;;8.75;5.45;;;;;;;19.45;64.86;97630.23;1714272;84;21044;-73
2021/06/09 06:57:05;;;;;;;11.03;5.50;;;;;;;19.51;64.06;97627.56;1678332;84;21040;-73
2021/06/09 06:59:32;;;;;;;7.70;4.72;;;;;;;19.56;63.40;97623.22;1737309;82;21410;-74
2021/06/09 07:02:03;;;;;;;13.83;5.28;;;;;;;19.62;63.76;97625.45;1715137;82;20981;-74
2021/06/09 07:04:32;;;;;;;10.38;5.70;;;;;;;19.69;63.55;97622.70;1714481;84;21024;-74
2021/06/09 07:06:59;;;;;;;12.37;6.28;;;;;;;19.76;63.35;97617.71;1714277;84;21039;-75
2021/06/09 07:09:26;;;;;;;7.70;5.50;;;;;;;19.83;62.82;97615.44;1735842;82;21441;-74
2021/06/09 07:11:53;;;;;;;12.65;5.60;;;;;;;19.90;62.78;97612.17;1744069;82;21020;-74
2021/06/09 07:14:28;;;;;;;9.05;5.30;;;;;;;19.97;61.67;97609.92;1732259;82;21063;-75
2021/06/09 07:16:56;;;;;;;14.30;5.17;;;;;;;20.06;61.54;97603.02;1714426;84;20989;-74
2021/06/09 07:19:24;;;;;;;10.68;5.47;;;;;;;20.12;60.19;97594.48;1717403;82;20968;-74
2021/06/09 07:21:50;;;;;;;7.95;5.25;;;;;;;20.21;61.71;97598.80;1714187;83;21032;-74
2021/06/09 07:24:17;;;;;;;9.10;5.05;;;;;;;20.29;61.20;97595.02;1714453;84;21422;-74
2021/06/09 07:26:48;;;;;;;9.43;5.80;;;;;;;20.37;61.35;97596.66;1714310;83;20985;-73
2021/06/09 07:29:22;;;;;;;7.70;5.10;;;;;;;20.47;61.22;97599.48;1717741;82;20980;-74
2021/06/09 07:31:50;;;;;;;11.22;5.22;;;;;;;20.54;57.92;97598.52;1691303;84;21004;-73
2021/06/09 07:34:18;;;;;;;11.75;5.95;;;;;;;20.64;58.22;97599.52;1714391;84;21036;-74
2021/06/09 07:36:59;;;;;;;7.95;5.37;;;;;;;20.71;59.45;97598.09;1714381;84;20988;-74
2021/06/09 07:39:39;;;;;;;11.83;5.50;;;;;;;20.80;59.25;97602.39;1717459;82;21000;-72
2021/06/09 07:42:10;;;;;;;7.22;5.03;;;;;;;20.89;59.12;97596.30;1714122;83;21464;-74
2021/06/09 07:44:44;;;;;;;9.25;5.17;;;;;;;20.97;58.05;97599.75;1714344;83;21046;-75
2021/06/09 07:47:13;;;;;;;8.63;5.25;;;;;;;21.05;58.24;97601.84;1726107;83;21037;-71
2021/06/09 07:49:44;;;;;;;8.65;5.10;;;;;;;21.10;57.66;97598.30;1718456;82;20988;-71
2021/06/09 07:52:11;;;;;;;8.55;4.28;;;;;;;21.12;57.39;97596.32;1714070;84;22261;-71
2021/06/09 07:54:38;;;;;;;8.53;4.90;;;;;;;21.15;56.08;97592.52;1714282;83;21044;-72
2021/06/09 07:57:06;;;;;;;5.95;4.60;;;;;;;21.22;57.13;97602.69;1714554;83;21050;-73
2021/06/09 07:59:34;;;;;;;7.95;4.87;;;;;;;21.26;56.91;97595.20;1716662;82;20992;-72
2021/06/09 08:02:00;;;;;;;8.68;4.28;;;;;;;21.30;55.99;97603.92;1714199;83;21012;-72
2021/06/09 08:04:27;;;;;;;10.70;4.15;;;;;;;21.33;56.13;97604.53;1712948;83;21663;-72
2021/06/09 08:06:54;;;;;;;6.85;4.42;;;;;;;21.39;55.79;97599.14;1714406;84;21029;-73
2021/06/09 08:09:21;;;;;;;6.70;4.70;;;;;;;21.47;54.06;97595.31;1724589;82;21067;-73
2021/06/09 08:11:48;;;;;;;6.80;4.72;;;;;;;21.55;55.00;97598.73;1714307;83;21465;-73
2021/06/09 08:14:16;;;;;;;8.58;4.60;;;;;;;21.65;55.20;97595.30;1714459;84;20980;-73
2021/06/09 08:16:43;;;;;;;6.62;4.30;;;;;;;21.73;54.26;97605.00;1714663;82;20989;-72
2021/06/09 08:19:10;;;;;;;7.65;4.80;;;;;;;21.80;54.83;97599.45;1664135;85;20991;-72
2021/06/09 08:21:37;;;;;;;9.13;4.20;;;;;;;21.86;54.29;97606.20;1662855;85;20996;-72
2021/06/09 08:24:06;;;;;;;6.72;4.20;;;;;;;21.89;54.51;97604.60;1660676;86;20958;-73
2021/06/09 08:26:34;;;;;;;6.50;4.60;;;;;;;21.99;53.97;97601.98;1666571;86;21036;-73
2021/06/09 08:29:01;;;;;;;7.85;4.37;;;;;;;22.06;54.75;97600.50;1658482;86;21053;-72
2021/06/09 08:31:31;;;;;;;5.87;4.50;;;;;;;22.13;53.40;97599.50;1654571;86;20989;-73
2021/06/09 08:34:01;;;;;;;7.50;4.60;;;;;;;22.20;53.50;97608.78;1652985;86;20973;-74
2021/06/09 08:36:30;;;;;;;6.30;4.30;;;;;;;22.25;54.16;97603.85;1652205;86;21048;-72
2021/06/09 08:38:58;;;;;;;5.78;4.72;;;;;;;22.34;53.11;97602.72;1652488;86;21016;-74
2021/06/09 08:41:32;;;;;;;9.65;4.95;;;;;;;22.42;53.20;97597.03;1651560;86;21040;-73
2021/06/09 08:44:01;;;;;;;5.22;4.70;;;;;;;22.52;53.40;97607.05;1652011;86;21050;-73
2021/06/09 08:46:30;;;;;;;5.05;4.55;;;;;;;22.61;53.63;97593.27;1660839;86;21111;-73
2021/06/09 08:48:58;;;;;;;5.00;4.50;;;;;;;22.68;53.97;97596.66;1661385;85;20954;-73
2021/06/09 08:51:27;;;;;;;7.42;5.03;;;;;;;22.79;53.87;97603.84;1660937;85;21414;-73
2021/06/09 08:53:55;;;;;;;9.08;4.83;;;;;;;22.88;52.48;97598.64;1649677;86;21006;-72
2021/06/09 08:56:24;;;;;;;5.72;4.70;;;;;;;22.96;51.76;97596.11;1690575;85;21069;-72
2021/06/09 08:58:52;;;;;;;9.68;5.40;;;;;;;23.03;50.41;97586.49;1679024;85;21030;-74
2021/06/09 09:01:19;;;;;;;6.55;5.58;;;;;;;23.12;51.79;97587.52;1684065;85;20954;-73
2021/06/09 09:03:50;;;;;;;6.97;5.55;;;;;;;23.21;51.73;97584.52;1664597;85;21416;-74
2021/06/09 09:06:17;;;;;;;4.78;4.05;;;;;;;23.35;51.48;97587.38;1658391;86;21389;-73
2021/06/09 09:08:44;;;;;;;5.95;5.35;;;;;;;23.47;49.98;97582.20;1658247;85;20965;-73
2021/06/09 09:11:11;;;;;;;46.10;32.45;;;;;;;23.63;50.49;97578.63;1658345;86;20985;-73
2021/06/09 09:13:39;;;;;;;8.78;5.30;;;;;;;23.75;50.12;97569.37;1677570;85;21451;-73
2021/06/09 09:16:06;;;;;;;5.53;4.35;;;;;;;23.85;49.32;97575.69;1640455;85;21145;-73
2021/06/09 09:18:45;;;;;;;7.00;4.03;;;;;;;23.95;47.18;97574.33;1631858;87;21013;-73
2021/06/09 09:21:17;;;;;;;13.32;6.78;;;;;;;24.00;47.38;97572.58;1643190;86;21051;-73
2021/06/09 09:23:50;;;;;;;5.90;4.97;;;;;;;24.16;48.27;97572.54;1634841;87;21628;-72
2021/06/09 09:26:29;;;;;;;10.38;6.00;;;;;;;24.21;48.25;97576.50;1630311;88;21438;-74
2021/06/09 09:29:20;;;;;;;6.30;5.35;;;;;;;24.33;48.28;97579.92;1622005;88;21112;-74
2021/06/09 09:31:58;;;;;;;4.72;4.33;;;;;;;24.32;46.19;97574.16;1626868;88;21039;-73
2021/06/09 09:34:44;;;;;;;6.15;4.50;;;;;;;24.16;46.39;97574.73;1630577;88;21083;-74
2021/06/09 09:37:21;;;;;;;5.10;4.60;;;;;;;24.15;45.51;97570.84;1631312;88;21047;-75
2021/06/09 09:39:52;;;;;;;6.33;4.72;;;;;;;24.22;45.94;97573.31;1631041;88;22159;-75
2021/06/09 09:42:38;;;;;;;7.17;5.62;;;;;;;24.34;46.76;97570.83;1621716;88;21046;-73
2021/06/09 09:45:22;;;;;;;6.42;4.62;;;;;;;24.48;46.11;97570.01;1627179;88;20986;-74
2021/06/09 09:48:11;;;;;;;9.83;6.90;;;;;;;24.55;45.80;97563.03;1612335;87;21035;-73
2021/06/09 09:50:46;;;;;;;5.03;4.47;;;;;;;24.60;45.92;97558.52;1619876;88;21600;-73
2021/06/09 09:53:18;;;;;;;7.05;4.33;;;;;;;24.72;45.81;97559.20;1618731;86;28360;-73
2021/06/09 09:56:16;;;;;;;6.00;4.50;;;;;;;25.03;42.71;97552.22;1628931;88;21015;-74
2021/06/09 09:59:05;;;;;;;4.47;3.70;;;;;;;25.10;43.52;97551.99;1622168;88;21047;-73
2021/06/09 10:01:36;;;;;;;5.72;4.10;;;;;;;25.11;41.69;97548.80;1621627;88;20992;-74
2021/06/09 10:04:06;;;;;;;6.25;3.92;;;;;;;25.15;41.08;97538.84;1633048;88;21031;-72
2021/06/09 10:06:46;;;;;;;8.88;5.12;;;;;;;25.27;41.88;97535.92;1632344;88;21003;-73
2021/06/09 10:09:26;;;;;;;5.17;4.37;;;;;;;25.41;41.04;97535.42;1631397;88;20984;-74
2021/06/09 10:11:58;;;;;;;5.03;4.08;;;;;;;25.54;41.86;97531.51;1630837;88;21141;-74
2021/06/09 10:14:31;;;;;;;5.62;4.40;;;;;;;25.68;41.47;97524.73;1633145;88;20992;-73
2021/06/09 10:17:07;;;;;;;5.92;4.37;;;;;;;25.82;41.25;97523.33;1652459;85;21035;-74
2021/06/09 10:19:39;;;;;;;6.80;4.35;;;;;;;25.84;41.44;97526.77;1664452;86;21050;-74
2021/06/09 10:22:20;;;;;;;4.95;4.45;;;;;;;25.68;40.28;97523.37;1672621;85;21305;-74
2021/06/09 10:24:52;;;;;;;4.05;3.70;;;;;;;25.60;40.91;97520.56;1642182;86;21132;-74
2021/06/09 10:27:33;;;;;;;6.00;3.80;;;;;;;25.68;40.59;97513.38;1647941;86;21028;-71
2021/06/09 10:30:00;;;;;;;3.67;3.35;;;;;;;25.82;40.48;97521.97;1644288;86;21104;-71
2021/06/09 10:32:27;;;;;;;8.53;3.52;;;;;;;25.81;36.98;97511.64;1643441;87;21090;-71
2021/06/09 10:34:54;;;;;;;6.92;4.55;;;;;;;25.80;37.33;97517.22;1643010;87;21473;-72
2021/06/09 10:37:20;;;;;;;5.65;4.12;;;;;;;25.79;37.62;97513.64;1643618;86;21013;-74
2021/06/09 10:39:47;;;;;;;5.47;4.97;;;;;;;25.82;37.33;97513.83;1643660;86;21024;-72
2021/06/09 10:42:18;;;;;;;6.03;4.30;;;;;;;26.01;37.65;97506.05;1643438;87;21055;-72
2021/06/09 10:44:49;;;;;;;4.40;4.00;;;;;;;26.61;38.10;97500.42;1643993;86;20989;-73
2021/06/09 10:47:29;;;;;;;4.65;3.30;;;;;;;27.62;36.81;97495.83;1646193;86;21091;-73
2021/06/09 10:49:55;;;;;;;3.77;3.37;;;;;;;28.61;35.06;97494.17;1646887;86;21005;-73
2021/06/09 10:52:24;;;;;;;4.50;3.42;;;;;;;29.34;30.57;97476.38;1642548;87;20997;-74
2021/06/09 10:54:51;;;;;;;4.70;3.90;;;;;;;30.07;29.20;97475.75;1643039;87;21184;-74
2021/06/09 10:57:19;;;;;;;3.87;3.33;;;;;;;30.76;28.44;97473.45;1619011;87;21147;-75
2021/06/09 10:59:47;;;;;;;4.37;3.67;;;;;;;31.22;25.79;97473.75;1635169;86;21019;-74
2021/06/09 11:02:19;;;;;;;4.12;3.72;;;;;;;31.80;27.38;97474.86;1643682;87;21493;-75
2021/06/09 11:04:50;;;;;;;4.00;3.55;;;;;;;32.01;28.13;97470.48;1645531;86;21033;-75
2021/06/09 11:07:32;;;;;;;3.50;3.20;;;;;;;32.55;25.32;97456.37;1664560;86;21518;-75
2021/06/09 11:10:06;;;;;;;5.65;3.67;;;;;;;33.25;26.19;97460.48;1682044;85;22294;-73
2021/06/09 11:12:43;;;;;;;3.60;2.98;;;;;;;33.66;27.05;97458.75;1666188;86;21123;-74
2021/06/09 11:15:14;;;;;;;3.50;3.20;;;;;;;34.28;24.12;97467.96;1666651;86;21007;-74
2021/06/09 11:17:48;;;;;;;6.10;3.77;;;;;;;34.64;24.21;97462.56;1648264;85;21106;-74
2021/06/09 11:20:34;;;;;;;3.72;3.17;;;;;;;34.93;24.09;97455.39;1666264;85;21043;-74
2021/06/09 11:23:29;;;;;;;17.50;15.70;;;;;;;34.04;22.62;97459.25;1679979;85;20985;-74
2021/06/09 11:25:56;;;;;;;3.47;3.17;;;;;;;32.92;24.63;97455.13;1682366;85;21662;-73
2021/06/09 11:28:38;;;;;;;3.35;3.05;;;;;;;32.39;24.73;97447.37;1679895;85;20933;-74
2021/06/09 11:31:10;;;;;;;4.05;3.10;;;;;;;32.06;25.33;97452.06;1655747;86;21038;-74
2021/06/09 11:33:56;;;;;;;3.47;3.17;;;;;;;32.15;25.04;97449.51;1665349;86;20982;-74
2021/06/09 11:36:40;;;;;;;4.97;3.60;;;;;;;32.49;25.91;97442.42;1656181;86;21012;-74
2021/06/09 11:39:21;;;;;;;3.30;3.00;;;;;;;33.40;23.99;97437.52;1664224;85;21046;-75
2021/06/09 11:41:51;;;;;;;3.90;3.20;;;;;;;33.36;23.70;97427.98;1665094;86;21602;-75
2021/06/09 11:44:38;;;;;;;3.80;3.50;;;;;;;33.76;24.35;97433.63;1643794;86;21482;-74
2021/06/09 11:47:27;;;;;;;4.87;3.60;;;;;;;33.63;23.60;97428.11;1648593;86;21481;-75
2021/06/09 11:50:27;;;;;;;4.67;3.25;;;;;;;34.06;23.79;97429.14;1646785;86;21011;-73
2021/06/09 11:55:44;;;;;;;3.50;3.20;;;;;;;35.02;22.20;97422.44;1621237;86;21033;-75